Skip to main content

Brassfield

Old Lantern Court
Raleigh, NC 27614

Area

Raleigh

Price Range

$325,000 - $525,000

Sqft

2,330 - 4,250 sq ft

Brassfield

Brassfield is a collection of homes built between 1985 and 1988.  The homes offer Located on the corner of Norwood Rd and Brass Kettle Rd, this neighborhood is convenient to I-540, North Hills, restaurants, shopping, and entertainment.   If you want value and convenience, Brassfield is for you!  Wake County Schools.

Ready for Your Personal Tour of Brassfield?

If so, contact any member of the expert North Raleigh real estate team here at LindaCraft.com to schedule your tour of Brassfield today!

Below are a few of Brassfield spotlight properties for sale. Visit the Brassfield Community Search page to see all home for sale in Brassfield.

View more neighborhoods in Raleigh.

Sample Brassfield Homes for Sale

Recently Sold in Brassfield

Price Beds Baths SQ FT Address City Zip Sold Date
$1,216,000 4 5 (full) 1 (half) 5400 1529 ROCK DOVE WAY Raleigh 27614 10/16/2019
$180,000 3 2 (full) 1 (half) 1702 11711 COPPERGATE DRIVE #102 Raleigh 27614 10/16/2019
$485,000 4 3 (full) 1 (half) 3823 12000 DEER RUN Raleigh 27614 10/15/2019
$227,000 3 2 (full) 1 (half) 1842 2524 SPRING OAKS WAY Raleigh 27614 10/15/2019
$166,900 3 2 (full) 1 (half) 1779 2221 VALLEY EDGE DRIVE #106 Raleigh 27614 10/10/2019
$380,000 4 2 (full) 1 (half) 2910 11920 PAWLEYS MILL CIRCLE Raleigh 27614 10/09/2019
$464,000 6 3 (full) 2 (half) 5158 2917 MOUNTAIN ASH COURT Raleigh 27614 10/10/2019
$508,000 4 3 (full) 1 (half) 3227 7200 SMALL RIDGE CIRCLE Raleigh 27614 10/10/2019
$395,000 4 2 (full) 1 (half) 3015 12036 DEER RUN Raleigh 27614 10/10/2019
$875,000 4 4 (full) 1 (half) 4270 1520 ROCK DOVE WAY Raleigh 27614 10/09/2019
$379,900 4 2 (full) 1 (half) 2717 12405 BRANDON HALL DRIVE Raleigh 27614 10/10/2019
$232,000 3 2 (full) 1 (half) 1440 10920 FARMVILLE ROAD Raleigh 27614 10/09/2019
$675,000 4 4 (full) 1 (half) 4507 7209 CABIN CREEK LANE Raleigh 27614 10/08/2019
$391,000 4 2 (full) 1 (half) 2524 2420 FALLS RIVER AVENUE Raleigh 27614 10/08/2019
$137,500 1 1 (full) 1 (half) 750 1311 DURLAIN DRIVE #107 Raleigh 27614 10/07/2019
$285,500 4 2 (full) 1 (half) 2806 11200 SADDLEWOOD COURT Raleigh 27614 10/03/2019
$300,000 4 2 (full) 1 (half) 2538 12582 HONEYCHURCH STREET Raleigh 27614 10/07/2019
$233,000 3 2 (full) 2 (half) 1659 2600 GARDEN KNOLL LANE Raleigh 27614 10/04/2019
$415,000 4 4 (full) 1 (half) 3415 2804 PEACHLEAF STREET Raleigh 27614 10/04/2019
$526,000 5 3 (full) 1 (half) 4344 10844 BEDFORDTOWN DRIVE Raleigh 27614 10/02/2019
$499,900 4 3 (full) 1 (half) 3209 12713 WATERMAN DRIVE Raleigh 27614 10/02/2019
$229,000 3 2 (full) 1 (half) 1630 09/26/2019
$415,000 4 3 (full) 2805 10721 GRASSY CREEK PLACE Raleigh 27614 09/30/2019
$1,080,000 5 5 (full) 1 (half) 6954 4717 NORBURY PLACE Raleigh 27614 10/01/2019
$499,900 4 3 (full) 1 (half) 4253 1300 COOLMORE DRIVE Raleigh 27614 09/30/2019
$1,188,000 4 4 (full) 1 (half) 4850 1500 KIRKBY LANE LT6 Raleigh 27614 09/30/2019
$445,000 3 2 (full) 1 (half) 3434 11800 STRALEY PLACE Raleigh 27614 09/30/2019
$195,000 3 2 (full) 1 (half) 1500 10927 PENDRAGON PLACE Raleigh 27614 09/30/2019
$203,000 2 2 (full) 1 (half) 1380 2244 BANKS HILL ROW Raleigh 27614 09/30/2019
$345,000 3 2 (full) 1254 15517 POSSUM TRACK ROAD Raleigh 27614 09/30/2019
$165,500 3 2 (full) 1 (half) 1740 2120 BREEZEWAY DRIVE #109 Raleigh 27614 09/30/2019
$430,000 4 2 (full) 1 (half) 3626 3001 GENTLE BREEZES LANE Raleigh 27614 09/27/2019
$245,000 2 2 (full) 1578 10487 DAPPING DRIVE Raleigh 27614 09/27/2019
$199,900 2 2 (full) 1 (half) 1680 3013 WINDING WATERS WAY Raleigh 27614 09/23/2019
$205,000 3 2 (full) 1 (half) 1478 1823 BARNGATE WAY Raleigh 27614 09/26/2019
$728,000 4 4 (full) 4462 6009 CARLYLE DRIVE Raleigh 27614 09/26/2019
$170,000 3 2 (full) 1 (half) 1755 11100 GWYNN OAKS DRIVE #113 Raleigh 27614 09/25/2019
$416,000 4 2 (full) 1 (half) 2741 2229 KARNS PLACE Raleigh 27614 09/25/2019
$253,500 3 2 (full) 1 (half) 1870 1221 RED BEECH COURT Raleigh 27614 09/25/2019
$807,000 5 4 (full) 1 (half) 5305 10904 GRAND JOURNEY AVENUE Raleigh 27614 09/24/2019
$200,000 3 2 (full) 1 (half) 1553 2709 SUNNY CORNERS COURT Raleigh 27614 09/18/2019
$450,000 6 6 (full) 4636 2209 WIDE RIVER DRIVE Raleigh 27614 09/24/2019
$355,000 4 2 (full) 1 (half) 3080 3100 HUMMER WAY Raleigh 27614 09/23/2019
$395,000 4 2 (full) 1 (half) 3076 10706 FRIENDLY NEIGHBOR LANE Raleigh 27614 09/23/2019
$306,000 4 3 (full) 1 (half) 2035 4426 CRYSTAL BREEZE STREET Raleigh 27614 09/16/2019
$749,571 4 3 (full) 1 (half) 7020 6032 DRUMQUIN DRIVE Raleigh 27614 09/20/2019
$425,000 4 3 (full) 1 (half) 3591 1913 KATESBRIDGE LANE Raleigh 27614 09/20/2019
$175,500 2 2 (full) 1 (half) 1381 2021 RIVERGATE ROAD #101 Raleigh 27614 09/19/2019
$465,000 4 3 (full) 1 (half) 3310 1212 SHINING WATER LANE Raleigh 27614 09/17/2019
$500,000 4 3 (full) 1 (half) 4048 1917 FALLS FARM CROSSING Raleigh 27614 09/19/2019
$412,000 4 2 (full) 1 (half) 2721 2604 FALLS RIVER AVENUE Raleigh 27614 09/18/2019
$174,000 3 2 (full) 1 (half) 1705 11720 COPPERGATE DRIVE #109 Wake Forest 27614 09/17/2019
$273,500 3 2 (full) 1 (half) 1711 2717 CYPRESS POINT LANE Raleigh 27614 09/16/2019
$1,314,000 4 4 (full) 2 (half) 4584 1420 LILY ESTATES DRIVE Raleigh 27614 09/16/2019
$898,000 5 5 (full) 1 (half) 4435 1600 ROCK DOVE WAY Raleigh 27614 09/13/2019
$545,000 3 3 (full) 1 (half) 2923 2537 MT VERNON CHURCH ROAD Raleigh 27614 09/13/2019
$435,000 4 3 (full) 1 (half) 3557 12229 BEESTONE LANE Raleigh 27614 09/13/2019
$225,000 3 3 (full) 1 (half) 2883 14403 HAMLETVILLE STREET Raleigh 27614 09/12/2019
$579,664 4 3 (full) 1 (half) 3139 1333 MILL GLEN CIRCLE Raleigh 27614 12/14/2018
$810,000 5 5 (full) 4773 7449 SEXTONS CREEK DRIVE Raleigh 27614 09/12/2019

The data relating to real estate for sale on this website comes in part from the IDX© Program of the Triangle Multiple Listing Services, Inc. of Cary. Real estate listings held by brokerage firms other than Linda Craft & Team are marked with the IDX© logo or the IDX© thumbnail logo and the detailed information about them includes the name of the listing brokers.
The listing broker has attempted to offer accurate data, but buyers are advised to confirm all items.
This data was last updated on: 10/15/19 02:20 PM. A full data refresh was last performed on: 10/13/19 02:57 PM.
** Information deemed reliable but not guaranteed ** Closed (sold) listings may have been listed and/or sold by a real estate firm other than the firm(s) featured on this website. Closed data is not available until the sale of the property is recorded in the MLS. Home sale data is not an appraisal, CMA, competitive or comparative market analysis, or home valuation of any property.
Copyright © 2019 Triangle MLS, Inc. of North Carolina. All rights reserved.

Explore Triangle Areas